Time;durP1;ratioP1;P1;durP2;ratioP2;P2;SDS_P1;SDS_P2;PMS_P1;PMS_P2;Temp;Humidity;BMP_temperature;BMP_pressure;BME280_temperature;BME280_humidity;BME280_pressure;Samples;Min_cycle;Max_cycle;Signal;HPM_P1;HPM_P2
2023/08/28 00:00:33;;;;;;;1.40;1.10;;;;;;;15.11;74.53;95249.47;4953972;29;20219;-82
2023/08/28 00:02:59;;;;;;;2.25;1.30;;;;;;;15.12;74.56;95238.00;4937703;29;20190;-81
2023/08/28 00:05:24;;;;;;;2.10;1.38;;;;;;;15.16;74.28;95241.06;4952252;29;20201;-81
2023/08/28 00:07:50;;;;;;;2.83;1.13;;;;;;;15.12;74.63;95234.59;4952979;28;20213;-82
2023/08/28 00:10:15;;;;;;;2.75;1.35;;;;;;;15.09;74.77;95224.47;4953877;29;20711;-82
2023/08/28 00:12:40;;;;;;;2.75;1.25;;;;;;;15.10;75.35;95223.47;4953714;29;20851;-81
2023/08/28 00:15:07;;;;;;;1.85;1.35;;;;;;;15.04;75.06;95211.16;4950485;28;20217;-82
2023/08/28 00:17:32;;;;;;;1.65;1.20;;;;;;;14.98;75.58;95207.44;4969035;28;20196;-81
2023/08/28 00:19:58;;;;;;;1.63;1.30;;;;;;;15.09;75.26;95204.34;4953372;29;20181;-82
2023/08/28 00:22:23;;;;;;;2.72;1.52;;;;;;;15.11;75.04;95199.78;4953221;29;20603;-83
2023/08/28 00:24:48;;;;;;;1.85;1.30;;;;;;;15.07;75.16;95202.94;4953210;29;20698;-82
2023/08/28 00:27:14;;;;;;;2.22;1.40;;;;;;;15.01;75.93;95209.69;4954706;28;20193;-82
2023/08/28 00:29:39;;;;;;;2.17;1.55;;;;;;;14.92;75.66;95216.81;4954657;28;20376;-83
2023/08/28 00:32:05;;;;;;;2.25;1.20;;;;;;;14.96;75.74;95202.41;4953359;29;20224;-82
2023/08/28 00:34:30;;;;;;;1.48;1.38;;;;;;;14.98;76.00;95192.56;4953151;28;20229;-81
2023/08/28 00:36:55;;;;;;;4.13;1.55;;;;;;;14.94;75.90;95193.13;4952974;29;20201;-81
2023/08/28 00:39:21;;;;;;;1.55;1.23;;;;;;;14.94;76.27;95204.41;4953613;28;20213;-81
2023/08/28 00:41:46;;;;;;;2.35;1.30;;;;;;;14.89;76.06;95211.97;4951928;29;20197;-83
2023/08/28 00:44:11;;;;;;;2.17;1.20;;;;;;;14.98;75.72;95217.91;4953353;29;20204;-82
2023/08/28 00:46:37;;;;;;;2.58;1.40;;;;;;;14.95;75.73;95210.44;4952613;29;20193;-82
2023/08/28 00:49:05;;;;;;;3.33;1.40;;;;;;;15.00;75.59;95223.75;4952899;28;20213;-82
2023/08/28 00:51:30;;;;;;;3.15;2.05;;;;;;;14.98;75.62;95233.59;4952959;29;20245;-81
2023/08/28 00:53:56;;;;;;;2.60;1.15;;;;;;;15.01;75.34;95233.22;4952916;29;21126;-81
2023/08/28 00:56:21;;;;;;;1.85;1.10;;;;;;;15.03;75.56;95233.88;4951983;29;20197;-81
2023/08/28 00:58:47;;;;;;;3.03;1.17;;;;;;;15.00;75.68;95235.03;4952445;28;20197;-82
2023/08/28 01:01:12;;;;;;;2.33;1.23;;;;;;;14.99;75.72;95216.91;4952583;29;20244;-81
2023/08/28 01:03:37;;;;;;;2.38;1.42;;;;;;;14.96;75.62;95220.72;4952593;29;20194;-83
2023/08/28 01:06:19;;;;;;;3.30;1.27;;;;;;;14.98;75.70;95220.53;4935871;29;20189;-81
2023/08/28 01:08:57;;;;;;;3.13;1.27;;;;;;;14.98;75.96;95210.06;4953002;28;20205;-81
2023/08/28 01:11:44;;;;;;;1.38;1.10;;;;;;;14.98;76.02;95212.69;4966148;28;20196;-81
2023/08/28 01:14:20;;;;;;;3.35;1.50;;;;;;;14.98;76.17;95220.53;4943909;28;20312;-81
2023/08/28 01:16:46;;;;;;;5.60;1.30;;;;;;;14.96;76.17;95225.94;4951442;29;20185;-81
2023/08/28 01:19:19;;;;;;;1.48;1.35;;;;;;;14.94;76.41;95221.91;4936049;29;20212;-81
2023/08/28 01:21:46;;;;;;;6.85;1.55;;;;;;;14.93;76.39;95231.53;4952159;29;20185;-81
2023/08/28 01:24:12;;;;;;;2.08;1.15;;;;;;;14.92;76.68;95227.28;4952280;29;20217;-81
2023/08/28 01:26:37;;;;;;;2.80;1.30;;;;;;;14.90;76.64;95231.88;4951585;29;20232;-82
2023/08/28 01:29:03;;;;;;;3.95;1.58;;;;;;;14.90;76.79;95237.13;4951698;28;20220;-81
2023/08/28 01:31:28;;;;;;;2.97;1.40;;;;;;;14.86;77.03;95233.25;4951653;29;20196;-82
2023/08/28 01:33:55;;;;;;;3.30;1.35;;;;;;;14.89;76.91;95232.06;4952108;29;20185;-81
2023/08/28 01:36:41;;;;;;;2.47;1.30;;;;;;;14.94;76.90;95230.56;4935562;29;20193;-81
2023/08/28 01:39:13;;;;;;;1.67;1.40;;;;;;;14.88;77.00;95220.81;4946202;28;20205;-81
2023/08/28 01:41:39;;;;;;;1.20;1.08;;;;;;;14.87;77.12;95224.41;4935734;29;20211;-82
2023/08/28 01:44:07;;;;;;;3.22;1.50;;;;;;;14.88;77.09;95227.84;4935813;29;20197;-81
2023/08/28 01:46:33;;;;;;;2.00;1.40;;;;;;;14.87;77.06;95223.63;4951389;28;20189;-81
2023/08/28 01:48:59;;;;;;;4.07;1.30;;;;;;;14.82;77.23;95218.91;4951641;28;20750;-82
2023/08/28 01:51:24;;;;;;;3.00;1.60;;;;;;;14.84;77.28;95216.94;4951698;29;20189;-81
2023/08/28 01:53:50;;;;;;;1.92;1.35;;;;;;;14.84;77.27;95218.72;4951854;29;20228;-81
2023/08/28 01:56:23;;;;;;;1.65;1.10;;;;;;;14.83;77.30;95215.31;4951288;29;20553;-82
2023/08/28 01:58:51;;;;;;;2.55;1.35;;;;;;;14.83;77.73;95215.31;4951611;28;20197;-82
2023/08/28 02:01:16;;;;;;;2.92;1.20;;;;;;;14.84;77.53;95229.19;4953466;28;20188;-81
2023/08/28 02:03:41;;;;;;;1.98;1.30;;;;;;;14.80;77.95;95220.09;4955775;29;20730;-81
2023/08/28 02:06:07;;;;;;;3.00;1.30;;;;;;;14.82;77.97;95231.19;4955650;29;20189;-81
2023/08/28 02:08:33;;;;;;;1.73;1.20;;;;;;;14.79;78.25;95219.28;4939425;29;20216;-81
2023/08/28 02:10:59;;;;;;;2.70;1.65;;;;;;;14.79;78.06;95210.63;4955665;29;20185;-81
2023/08/28 02:13:25;;;;;;;2.58;1.30;;;;;;;14.79;78.17;95208.84;4955704;28;20279;-81
2023/08/28 02:15:50;;;;;;;2.45;1.38;;;;;;;14.79;78.05;95189.72;4955726;28;20193;-81
2023/08/28 02:18:16;;;;;;;1.98;1.27;;;;;;;14.77;78.43;95191.72;4955430;28;20236;-82
2023/08/28 02:20:41;;;;;;;2.17;1.63;;;;;;;14.76;78.24;95190.09;4955845;29;20573;-81
2023/08/28 02:23:07;;;;;;;2.88;1.38;;;;;;;14.73;78.72;95180.78;4955992;29;20200;-82
2023/08/28 02:25:32;;;;;;;2.72;1.40;;;;;;;14.75;78.36;95165.72;4955201;29;20232;-81
2023/08/28 02:27:58;;;;;;;2.80;1.30;;;;;;;14.73;78.58;95157.28;4955124;28;20617;-82
2023/08/28 02:30:23;;;;;;;5.93;1.20;;;;;;;14.71;78.66;95156.66;4955374;29;20217;-81
2023/08/28 02:32:49;;;;;;;4.13;1.60;;;;;;;14.69;78.94;95145.56;4955318;29;20196;-82
2023/08/28 02:35:14;;;;;;;1.60;1.30;;;;;;;14.68;78.58;95149.19;4939009;29;20185;-81
2023/08/28 02:37:39;;;;;;;2.15;1.60;;;;;;;14.69;78.41;95154.22;4950996;28;20192;-81
2023/08/28 02:40:06;;;;;;;3.42;1.30;;;;;;;14.62;78.51;95155.94;4955376;29;20185;-81
2023/08/28 02:42:31;;;;;;;3.35;1.30;;;;;;;14.67;78.55;95155.41;4954951;29;20185;-83
2023/08/28 02:44:56;;;;;;;4.57;2.13;;;;;;;14.65;78.52;95155.56;4954910;29;20189;-82
2023/08/28 02:47:22;;;;;;;1.63;1.52;;;;;;;14.62;78.60;95144.69;4954306;29;20244;-82
2023/08/28 02:49:47;;;;;;;1.58;1.25;;;;;;;14.63;78.13;95152.34;4954442;28;20213;-85
2023/08/28 02:52:13;;;;;;;2.70;1.20;;;;;;;14.62;78.39;95148.09;4954787;29;20197;-82
2023/08/28 02:54:38;;;;;;;1.83;1.35;;;;;;;14.59;79.07;95152.88;4954539;29;20234;-81
2023/08/28 02:57:04;;;;;;;2.50;1.30;;;;;;;14.64;78.68;95160.97;4954620;29;20189;-83
2023/08/28 02:59:30;;;;;;;4.63;1.40;;;;;;;14.62;78.76;95162.97;4954671;28;20228;-82
2023/08/28 03:01:55;;;;;;;2.63;1.30;;;;;;;14.57;79.09;95166.13;4954959;29;20185;-82
2023/08/28 03:04:20;;;;;;;3.08;1.50;;;;;;;14.59;79.18;95158.94;4954921;29;20237;-82
2023/08/28 03:06:46;;;;;;;2.20;1.80;;;;;;;14.55;79.00;95162.06;4953875;29;20639;-82
2023/08/28 03:09:14;;;;;;;1.40;1.25;;;;;;;14.53;78.86;95159.66;4954326;28;20220;-82
2023/08/28 03:11:39;;;;;;;2.72;1.60;;;;;;;14.53;79.02;95158.84;4953833;28;20663;-82
2023/08/28 03:14:05;;;;;;;1.58;1.48;;;;;;;14.56;78.79;95155.84;4937829;29;20233;-82
2023/08/28 03:16:30;;;;;;;3.38;1.83;;;;;;;14.55;78.97;95151.63;4953725;29;20200;-82
2023/08/28 03:18:55;;;;;;;2.47;1.33;;;;;;;14.53;79.22;95149.19;4954546;28;20687;-81
2023/08/28 03:21:21;;;;;;;2.00;1.60;;;;;;;14.50;79.56;95141.72;4954545;29;20597;-82
2023/08/28 03:23:46;;;;;;;4.65;1.60;;;;;;;14.49;79.10;95137.50;4954291;29;20185;-82
2023/08/28 03:26:11;;;;;;;3.28;1.40;;;;;;;14.44;79.64;95135.38;4953592;29;20623;-82
2023/08/28 03:28:37;;;;;;;5.18;1.77;;;;;;;14.43;79.58;95131.16;4954157;28;20214;-82
2023/08/28 03:31:02;;;;;;;2.75;1.65;;;;;;;14.46;79.57;95135.22;4954126;29;20189;-82
2023/08/28 03:33:28;;;;;;;6.80;1.70;;;;;;;14.45;79.82;95131.00;4938095;29;20292;-82
2023/08/28 03:35:54;;;;;;;2.05;1.48;;;;;;;14.40;80.20;95128.91;4953760;29;20186;-82
2023/08/28 03:38:19;;;;;;;3.17;1.35;;;;;;;14.41;80.25;95135.75;4953444;28;20584;-82
2023/08/28 03:40:45;;;;;;;1.40;1.30;;;;;;;14.34;80.53;95136.66;4953587;29;20185;-82
2023/08/28 03:43:11;;;;;;;3.53;1.73;;;;;;;14.33;80.73;95133.22;4954119;29;20185;-82
2023/08/28 03:45:37;;;;;;;2.45;1.38;;;;;;;14.25;80.86;95135.13;4954031;29;20204;-83
2023/08/28 03:48:03;;;;;;;2.42;2.00;;;;;;;14.31;81.24;95132.59;4953478;28;20240;-81
2023/08/28 03:50:30;;;;;;;1.48;1.38;;;;;;;14.29;81.39;95145.00;4953517;28;20244;-81
2023/08/28 03:52:59;;;;;;;3.27;1.53;;;;;;;14.31;81.61;95144.81;4953939;29;20273;-82
2023/08/28 03:55:25;;;;;;;2.88;1.50;;;;;;;14.28;81.53;95156.47;4969443;28;20209;-82
2023/08/28 03:57:51;;;;;;;2.28;1.60;;;;;;;14.28;81.79;95145.19;4953164;28;20973;-82
2023/08/28 04:00:18;;;;;;;1.67;1.48;;;;;;;14.26;82.02;95145.38;4969909;28;20824;-82
2023/08/28 04:02:47;;;;;;;3.95;1.60;;;;;;;14.27;82.37;95146.19;4951354;29;20602;-81
2023/08/28 04:05:13;;;;;;;3.23;1.60;;;;;;;14.24;82.31;95144.75;4937305;29;20193;-81
2023/08/28 04:07:38;;;;;;;2.13;1.70;;;;;;;14.26;82.72;95158.44;4969163;28;20192;-82
2023/08/28 04:10:04;;;;;;;4.07;1.80;;;;;;;14.26;83.03;95142.78;4953570;29;20625;-81
2023/08/28 04:12:30;;;;;;;3.90;1.80;;;;;;;14.26;83.49;95142.78;4953442;29;20204;-82
2023/08/28 04:14:57;;;;;;;5.23;1.97;;;;;;;14.15;84.17;95146.66;4953009;29;20272;-81
2023/08/28 04:17:23;;;;;;;2.15;1.88;;;;;;;14.21;84.57;95149.50;4950865;28;20191;-82
2023/08/28 04:19:49;;;;;;;1.83;1.70;;;;;;;14.18;84.17;95143.66;4952992;28;20205;-83
2023/08/28 04:22:15;;;;;;;2.00;1.83;;;;;;;14.12;84.60;95151.41;4954009;28;20216;-81
2023/08/28 04:24:40;;;;;;;1.80;1.67;;;;;;;14.06;85.68;95147.72;4954228;28;20185;-82
2023/08/28 04:27:05;;;;;;;2.77;1.83;;;;;;;14.07;85.48;95146.72;4954613;29;20205;-82
2023/08/28 04:29:31;;;;;;;2.33;2.00;;;;;;;13.85;87.59;95135.34;4953449;28;20223;-82
2023/08/28 04:31:56;;;;;;;2.85;1.90;;;;;;;13.96;87.57;95133.28;4953686;29;20564;-82
2023/08/28 04:34:21;;;;;;;2.67;1.70;;;;;;;13.97;87.53;95133.13;4953073;29;20212;-82
2023/08/28 04:36:47;;;;;;;4.25;2.35;;;;;;;14.00;87.28;95127.53;4952334;29;20196;-82
2023/08/28 04:39:12;;;;;;;4.10;1.90;;;;;;;14.05;86.93;95127.81;4968844;28;20209;-81
2023/08/28 04:41:38;;;;;;;2.40;1.98;;;;;;;14.08;87.29;95124.84;4952955;29;20204;-80
2023/08/28 04:44:03;;;;;;;3.70;2.20;;;;;;;14.11;87.03;95119.25;4936056;29;20189;-80
2023/08/28 04:46:28;;;;;;;3.40;2.53;;;;;;;14.15;87.08;95117.94;4951986;29;20280;-81
2023/08/28 04:48:54;;;;;;;3.77;2.03;;;;;;;14.12;87.19;95114.84;4952230;28;20308;-81
2023/08/28 04:51:19;;;;;;;2.90;2.57;;;;;;;14.10;87.48;95115.03;4952248;29;20709;-80
2023/08/28 04:53:47;;;;;;;3.33;2.20;;;;;;;14.11;87.68;95118.44;4952393;29;20256;-81
2023/08/28 04:56:12;;;;;;;3.03;2.27;;;;;;;14.13;87.75;95119.91;4936032;29;20200;-81
2023/08/28 04:59:47;;;;;;;3.67;2.50;;;;;;;14.12;87.56;95114.84;4951496;23;20802;-81
2023/08/28 05:21:59;;;;;;;6.73;3.27;;;;;;;14.14;88.62;95115.50;5308038;23;20259;-82
2023/08/28 05:24:24;;;;;;;4.43;3.23;;;;;;;14.19;88.36;95115.75;4953757;28;20588;-81
2023/08/28 05:26:49;;;;;;;5.77;3.00;;;;;;;14.21;88.33;95113.75;4958067;28;20181;-81
2023/08/28 05:29:15;;;;;;;5.00;3.07;;;;;;;14.21;88.60;95111.16;4955281;28;20227;-81
2023/08/28 05:31:40;;;;;;;4.53;3.00;;;;;;;14.25;88.36;95104.59;4956318;28;20192;-83
2023/08/28 05:34:05;;;;;;;5.93;3.10;;;;;;;14.26;88.51;95116.66;4958586;28;20192;-80
2023/08/28 05:36:31;;;;;;;3.63;3.00;;;;;;;14.20;88.69;95112.16;4963149;28;20188;-80
2023/08/28 05:38:56;;;;;;;6.27;3.30;;;;;;;14.23;88.48;95116.22;4961494;28;20704;-81
2023/08/28 05:41:22;;;;;;;5.97;2.87;;;;;;;14.13;89.32;95116.47;4959199;28;20254;-81
2023/08/28 05:43:48;;;;;;;6.23;3.43;;;;;;;14.16;89.24;95118.72;4957195;28;20193;-81
2023/08/28 05:46:13;;;;;;;3.70;2.90;;;;;;;14.28;88.53;95117.28;4981711;28;20280;-81
2023/08/28 05:48:38;;;;;;;6.07;3.03;;;;;;;14.15;88.75;95112.69;4954289;28;20604;-80
2023/08/28 05:51:04;;;;;;;4.60;3.07;;;;;;;14.04;89.52;95114.94;4956638;28;20623;-81
2023/08/28 05:53:29;;;;;;;6.03;2.93;;;;;;;14.18;89.08;95119.34;4960080;28;20248;-79
2023/08/28 05:55:54;;;;;;;3.40;2.72;;;;;;;14.19;88.98;95115.75;4961942;28;20177;-79
2023/08/28 05:58:23;;;;;;;4.07;3.03;;;;;;;14.06;89.71;95112.97;4964288;28;20233;-81
2023/08/28 06:00:48;;;;;;;3.17;2.67;;;;;;;14.06;89.09;95110.34;4958036;28;20216;-82
2023/08/28 06:03:13;;;;;;;4.20;3.07;;;;;;;14.12;89.24;95118.25;4961700;28;20201;-82
2023/08/28 06:05:39;;;;;;;3.50;2.53;;;;;;;14.11;89.34;95108.81;4958199;28;20251;-82
2023/08/28 06:08:05;;;;;;;4.00;3.17;;;;;;;14.12;88.38;95099.97;4952674;28;20212;-81
2023/08/28 06:10:31;;;;;;;4.63;2.75;;;;;;;14.13;88.34;95100.78;4975463;28;20216;-82
2023/08/28 06:12:57;;;;;;;4.93;2.53;;;;;;;14.12;88.74;95099.97;4964055;28;20185;-81
2023/08/28 06:15:22;;;;;;;8.57;2.67;;;;;;;14.15;88.45;95094.41;4947720;28;20181;-83
2023/08/28 06:17:49;;;;;;;5.77;3.00;;;;;;;14.18;87.90;95094.06;4961190;28;20200;-81
2023/08/28 06:20:15;;;;;;;5.60;3.00;;;;;;;14.27;87.30;95092.16;4956173;28;20208;-82
2023/08/28 06:22:41;;;;;;;3.47;2.53;;;;;;;14.36;87.30;95088.47;4960593;28;20235;-83
2023/08/28 06:25:08;;;;;;;5.37;2.90;;;;;;;14.36;86.72;95080.63;4962274;28;20220;-82
2023/08/28 06:27:33;;;;;;;3.77;3.10;;;;;;;14.32;86.97;95074.16;4979162;28;20216;-83
2023/08/28 06:29:58;;;;;;;4.55;2.95;;;;;;;14.23;86.92;95072.63;4957239;28;20423;-82
2023/08/28 06:32:27;;;;;;;3.30;2.97;;;;;;;14.32;86.83;95057.69;4963107;28;20272;-81
2023/08/28 06:34:52;;;;;;;4.07;2.55;;;;;;;14.30;87.04;95055.22;4964686;28;20218;-81
2023/08/28 06:37:17;;;;;;;5.05;3.40;;;;;;;14.27;87.79;95052.19;4964382;28;20693;-81
2023/08/28 06:39:43;;;;;;;5.25;2.70;;;;;;;14.40;87.26;95055.78;4960327;28;20212;-80
2023/08/28 06:42:08;;;;;;;5.97;3.22;;;;;;;14.35;87.26;95065.94;4985443;28;20200;-81
2023/08/28 06:44:33;;;;;;;4.18;3.15;;;;;;;14.30;86.85;95067.47;4967735;28;20185;-81
2023/08/28 06:46:58;;;;;;;5.28;3.17;;;;;;;14.58;86.44;95062.44;4966779;28;20673;-81
2023/08/28 06:49:24;;;;;;;6.88;3.92;;;;;;;14.50;nan;95065.97;4967203;28;20716;-81
2023/08/28 06:51:49;;;;;;;8.27;3.90;;;;;;;14.60;86.50;95063.06;4962721;28;20823;-81
2023/08/28 06:54:15;;;;;;;3.97;3.58;;;;;;;14.62;85.77;95056.63;4964511;28;20239;-82
2023/08/28 06:56:40;;;;;;;4.83;3.67;;;;;;;14.33;86.90;95067.13;4964876;28;20282;-81
2023/08/28 06:59:05;;;;;;;5.20;3.90;;;;;;;14.44;87.91;95064.03;4955859;28;20205;-81
2023/08/28 07:01:31;;;;;;;3.70;3.27;;;;;;;14.68;85.75;95068.16;4963350;28;20184;-81
2023/08/28 07:03:56;;;;;;;4.70;3.58;;;;;;;14.85;85.35;95068.75;4972220;28;20215;-81
2023/08/28 07:06:21;;;;;;;4.30;3.90;;;;;;;14.91;84.79;95068.81;4956873;28;20211;-79
2023/08/28 07:08:49;;;;;;;7.55;4.15;;;;;;;14.83;85.39;95068.09;4961736;28;20779;-79
2023/08/28 07:11:15;;;;;;;6.43;3.75;;;;;;;14.97;84.73;95067.25;4964838;28;20658;-80
2023/08/28 07:13:40;;;;;;;4.43;3.42;;;;;;;14.79;86.28;95059.84;4964984;28;20224;-80
2023/08/28 07:16:06;;;;;;;6.50;3.47;;;;;;;14.97;85.43;95051.56;4967387;28;20227;-80
2023/08/28 07:18:31;;;;;;;6.10;3.00;;;;;;;15.10;84.05;95048.25;4967274;28;20208;-79
2023/08/28 07:20:57;;;;;;;5.22;3.22;;;;;;;15.17;83.54;95073.47;4958844;28;20193;-80
2023/08/28 07:23:24;;;;;;;4.60;3.50;;;;;;;15.27;83.92;95091.47;4955995;28;20292;-80
2023/08/28 07:25:50;;;;;;;3.58;3.28;;;;;;;15.22;83.88;95099.09;4958001;28;20197;-80
2023/08/28 07:28:15;;;;;;;6.38;3.22;;;;;;;15.08;83.25;95105.19;4960971;28;20611;-80
2023/08/28 07:30:41;;;;;;;5.43;3.40;;;;;;;15.13;83.10;95097.59;4951026;28;20253;-81
2023/08/28 07:33:07;;;;;;;6.00;3.72;;;;;;;15.06;82.50;95096.72;4967605;28;20311;-80
2023/08/28 07:35:35;;;;;;;3.92;3.30;;;;;;;14.96;82.00;95097.81;4966911;28;20639;-82
2023/08/28 07:38:07;;;;;;;5.05;3.17;;;;;;;14.97;83.02;95090.78;4962269;28;20209;-82
2023/08/28 07:40:32;;;;;;;4.57;2.95;;;;;;;14.99;82.08;95076.53;4956505;28;20201;-82
2023/08/28 07:42:59;;;;;;;4.45;3.30;;;;;;;14.79;82.48;95054.63;4941444;28;20185;-82
2023/08/28 07:45:24;;;;;;;8.05;3.72;;;;;;;14.65;84.05;95058.88;4958604;28;20196;-82
2023/08/28 07:47:50;;;;;;;4.27;3.50;;;;;;;14.65;84.35;95060.69;4957076;28;20220;-81
2023/08/28 07:50:15;;;;;;;5.15;3.50;;;;;;;14.93;83.98;95066.84;4962989;28;20213;-82
2023/08/28 07:52:41;;;;;;;4.97;3.53;;;;;;;14.91;83.73;95063.56;4958513;28;20188;-82
2023/08/28 07:55:06;;;;;;;4.40;3.80;;;;;;;15.23;83.57;95077.97;4958454;28;20224;-81
2023/08/28 08:19:56;;;;;;;4.50;3.15;;;;;;;15.22;81.15;95109.56;4966183;23;20946;-78
2023/08/28 08:22:22;;;;;;;4.07;3.30;;;;;;;15.00;82.75;95106.09;4956430;28;20193;-79
2023/08/28 08:24:47;;;;;;;7.80;3.80;;;;;;;14.99;83.06;95113.13;4971281;28;20193;-84
2023/08/28 08:27:12;;;;;;;5.70;3.60;;;;;;;15.24;82.42;95104.94;4964325;28;20185;-83
2023/08/28 08:29:38;;;;;;;6.72;3.60;;;;;;;14.96;84.24;95110.09;4953799;28;20206;-80
2023/08/28 08:32:04;;;;;;;5.72;3.58;;;;;;;15.24;82.30;95124.06;4952260;29;20193;-83
2023/08/28 08:34:32;;;;;;;3.63;3.28;;;;;;;15.43;81.36;95130.47;4957477;29;20188;-83
2023/08/28 08:36:57;;;;;;;7.80;3.58;;;;;;;15.13;82.49;95142.06;4956951;29;20220;-83
2023/08/28 08:39:24;;;;;;;7.53;4.03;;;;;;;15.18;79.73;95134.44;4976716;28;20205;-84
2023/08/28 08:41:49;;;;;;;3.80;3.50;;;;;;;15.19;79.56;95128.22;4944983;29;20187;-83
2023/08/28 08:44:14;;;;;;;3.67;3.30;;;;;;;15.07;80.36;95127.09;4960538;29;20196;-83
2023/08/28 08:46:41;;;;;;;5.53;3.60;;;;;;;15.22;81.27;95122.63;4956282;29;20328;-83
2023/08/28 08:49:12;;;;;;;3.90;3.10;;;;;;;15.32;80.45;95122.31;4960164;28;20209;-83
2023/08/28 08:51:41;;;;;;;4.00;3.08;;;;;;;15.20;81.26;95116.78;4943325;29;20195;-82
2023/08/28 08:54:17;;;;;;;4.20;3.15;;;;;;;15.44;78.18;95111.16;4954200;29;20185;-82
2023/08/28 08:56:43;;;;;;;9.95;3.90;;;;;;;15.44;78.98;95126.84;4922022;29;20194;-83
2023/08/28 08:59:09;;;;;;;4.45;3.50;;;;;;;15.36;78.25;95134.81;4938006;29;20618;-83
2023/08/28 09:01:36;;;;;;;4.32;3.60;;;;;;;15.31;77.71;95129.34;4953850;29;20198;-82
2023/08/28 09:04:03;;;;;;;3.60;3.22;;;;;;;15.48;77.38;95120.25;4954156;28;20185;-83
2023/08/28 09:06:29;;;;;;;6.20;3.63;;;;;;;15.30;79.04;95114.66;4952120;28;20200;-82
2023/08/28 09:08:55;;;;;;;5.28;3.25;;;;;;;15.66;77.83;95116.41;4952651;28;20288;-82
2023/08/28 09:11:20;;;;;;;5.80;3.63;;;;;;;15.72;76.70;95120.88;4952963;28;20615;-80
2023/08/28 09:13:45;;;;;;;4.03;2.80;;;;;;;16.03;75.46;95125.75;4937331;29;20212;-84
2023/08/28 09:16:11;;;;;;;3.95;3.58;;;;;;;16.16;76.02;95125.81;4954232;29;20232;-84
2023/08/28 09:19:02;;;;;;;4.35;3.30;;;;;;;16.20;74.14;95126.25;4937060;29;20215;-86
2023/08/28 09:22:29;;;;;;;;;;;;;;;;;;;;;
2023/08/28 09:28:48;;;;;;;4.40;3.45;;;;;;;16.11;71.51;95136.88;4916911;29;20309;-83
2023/08/28 09:31:29;;;;;;;4.53;3.90;;;;;;;16.50;68.77;95134.69;4924350;29;20264;-84
2023/08/28 09:34:43;;;;;;;;;;;;;;;;;;;;;
2023/08/28 09:40:36;;;;;;;6.20;3.28;;;;;;;16.19;69.10;95119.41;4834672;29;20193;-83
2023/08/28 09:43:09;;;;;;;3.33;2.88;;;;;;;16.33;69.59;95121.09;4817906;29;20631;-84
2023/08/28 09:45:34;;;;;;;3.33;3.00;;;;;;;16.31;67.85;95120.47;4832272;29;20302;-83
2023/08/28 09:48:03;;;;;;;2.90;2.47;;;;;;;16.26;68.01;95109.78;4835271;29;20250;-82
2023/08/28 09:50:29;;;;;;;3.15;2.53;;;;;;;16.08;68.40;95102.41;4821357;29;20285;-83
2023/08/28 09:53:08;;;;;;;2.85;2.38;;;;;;;16.08;69.53;95095.38;4816034;29;20216;-83
2023/08/28 09:55:41;;;;;;;3.30;2.40;;;;;;;15.86;68.62;95092.00;4834200;29;20205;-82
2023/08/28 09:58:10;;;;;;;4.80;2.10;;;;;;;15.98;66.71;95081.78;4819872;29;20237;-84
2023/08/28 10:00:38;;;;;;;7.70;2.40;;;;;;;16.54;65.75;95086.94;4851650;29;20639;-84
2023/08/28 10:03:04;;;;;;;3.90;2.30;;;;;;;16.21;67.82;95084.16;4843953;29;20196;-84
2023/08/28 10:05:30;;;;;;;1.90;1.70;;;;;;;16.30;66.31;95072.50;4847426;29;20279;-82
2023/08/28 10:08:01;;;;;;;5.00;2.22;;;;;;;15.89;66.31;95066.41;4845020;29;20221;-84
2023/08/28 10:10:27;;;;;;;3.28;1.70;;;;;;;16.41;64.36;95071.94;4862653;29;20233;-82
2023/08/28 10:12:53;;;;;;;2.05;1.80;;;;;;;16.11;66.49;95060.94;4865610;29;20422;-84
2023/08/28 10:15:18;;;;;;;2.53;1.60;;;;;;;16.18;63.85;95062.78;4883391;29;20275;-85
2023/08/28 10:17:44;;;;;;;2.25;1.73;;;;;;;16.35;63.77;95061.47;4932902;28;20419;-85
2023/08/28 10:20:12;;;;;;;2.20;1.70;;;;;;;16.32;63.64;95067.88;4959019;28;20193;-84
2023/08/28 10:22:38;;;;;;;2.00;1.83;;;;;;;16.30;63.57;95064.66;4961157;28;20268;-84
2023/08/28 10:25:05;;;;;;;2.35;1.67;;;;;;;16.73;62.59;95067.06;4963823;29;20197;-85
2023/08/28 10:27:30;;;;;;;5.60;2.20;;;;;;;16.86;61.08;95066.28;4962524;28;20201;-84
2023/08/28 10:29:56;;;;;;;2.60;1.80;;;;;;;17.07;60.64;95066.16;4964774;29;20790;-84
2023/08/28 10:32:22;;;;;;;5.38;1.80;;;;;;;16.93;62.63;95064.50;4980256;28;20204;-84
2023/08/28 10:34:48;;;;;;;2.90;2.00;;;;;;;16.74;63.96;95068.69;4980240;28;20181;-84
2023/08/28 10:37:14;;;;;;;10.98;2.15;;;;;;;16.60;62.62;95053.88;4974133;28;20225;-83
2023/08/28 10:39:41;;;;;;;1.90;1.70;;;;;;;16.84;61.37;95056.00;4981082;28;20197;-85
2023/08/28 10:42:13;;;;;;;3.08;1.52;;;;;;;17.07;60.10;95058.28;4981427;28;20166;-85
2023/08/28 10:44:38;;;;;;;2.30;1.20;;;;;;;17.33;59.81;95048.81;4955918;28;20217;-84
2023/08/28 10:47:05;;;;;;;3.10;2.08;;;;;;;16.91;61.57;95050.78;4962570;29;20248;-84
2023/08/28 10:49:32;;;;;;;2.00;1.80;;;;;;;16.87;62.96;95039.03;4969134;28;20245;-85
2023/08/28 10:52:04;;;;;;;3.08;1.70;;;;;;;17.03;61.20;95051.00;4974836;29;20169;-85
2023/08/28 10:54:41;;;;;;;2.25;1.83;;;;;;;16.34;62.29;95044.09;4980722;28;20174;-84
2023/08/28 10:57:10;;;;;;;2.92;1.77;;;;;;;16.64;62.41;95034.94;4980508;28;20197;-86
2023/08/28 10:59:45;;;;;;;2.75;1.98;;;;;;;16.71;62.75;95029.75;4979875;28;20217;-86
2023/08/28 11:02:11;;;;;;;3.65;1.60;;;;;;;17.16;61.45;95032.66;4979559;28;20249;-85
2023/08/28 11:04:39;;;;;;;1.63;1.50;;;;;;;17.55;58.67;95023.97;4978910;28;20189;-85
2023/08/28 11:07:06;;;;;;;3.65;1.85;;;;;;;17.19;58.65;95021.75;4971846;28;20193;-83
2023/08/28 11:09:33;;;;;;;4.03;1.48;;;;;;;17.69;57.84;95022.16;4941154;29;20756;-85
2023/08/28 11:11:58;;;;;;;2.65;1.48;;;;;;;16.34;60.43;95029.22;4959785;29;20188;-83
2023/08/28 11:14:34;;;;;;;2.22;1.60;;;;;;;17.10;59.43;95023.75;4961795;29;20264;-82
2023/08/28 11:17:10;;;;;;;2.05;1.40;;;;;;;17.22;60.63;95016.91;4957275;29;20181;-84
2023/08/28 11:19:54;;;;;;;2.33;1.40;;;;;;;17.26;59.07;95031.25;4957879;28;20280;-82
2023/08/28 11:22:40;;;;;;;1.50;1.23;;;;;;;17.27;57.18;95027.59;4974141;28;20637;-84
2023/08/28 11:25:08;;;;;;;2.08;1.80;;;;;;;17.18;57.79;95031.44;4957753;29;20197;-84
2023/08/28 11:27:51;;;;;;;1.77;1.13;;;;;;;17.65;58.01;95029.59;4956901;28;20262;-84
2023/08/28 11:30:21;;;;;;;1.48;1.10;;;;;;;18.07;57.73;95028.34;4954587;29;20230;-86
2023/08/28 11:32:51;;;;;;;1.00;0.77;;;;;;;18.40;55.86;95025.63;4956689;28;20544;-85
2023/08/28 11:35:17;;;;;;;1.42;1.10;;;;;;;17.80;57.49;95030.22;4955951;29;20236;-86
2023/08/28 11:37:50;;;;;;;1.50;1.30;;;;;;;17.11;58.26;95024.56;4955321;28;20193;-86
2023/08/28 11:40:33;;;;;;;3.10;1.30;;;;;;;17.60;57.14;95029.44;4953687;29;20216;-88
2023/08/28 11:43:08;;;;;;;2.08;1.10;;;;;;;17.74;57.27;95032.88;4956480;28;20193;-85
2023/08/28 11:45:34;;;;;;;1.80;1.58;;;;;;;17.38;59.62;95025.38;4955929;28;20193;-86
2023/08/28 11:48:00;;;;;;;1.30;1.20;;;;;;;17.53;58.29;95023.38;4953889;28;20709;-85
2023/08/28 11:50:26;;;;;;;1.80;1.05;;;;;;;17.96;58.19;95029.00;4954095;29;20205;-86
2023/08/28 11:52:52;;;;;;;2.15;1.50;;;;;;;17.50;58.68;95029.03;4954331;29;20196;-85
2023/08/28 11:55:19;;;;;;;1.52;1.27;;;;;;;17.95;56.45;95032.63;4954578;29;20188;-86
2023/08/28 11:57:48;;;;;;;2.28;1.20;;;;;;;17.46;59.99;95026.00;4969833;28;20229;-86
2023/08/28 12:00:16;;;;;;;3.40;1.52;;;;;;;17.72;58.46;95019.13;4935340;29;20761;-87
2023/08/28 12:02:46;;;;;;;5.05;1.50;;;;;;;17.99;58.19;95012.81;4958078;29;20217;-86
2023/08/28 12:05:21;;;;;;;1.40;1.30;;;;;;;17.24;58.85;95012.28;4955675;28;20247;-85
2023/08/28 12:07:47;;;;;;;2.55;1.20;;;;;;;17.32;58.44;95015.72;4929916;29;20551;-86
2023/08/28 12:10:14;;;;;;;2.53;1.40;;;;;;;17.27;57.40;95009.25;4954914;29;20217;-82
2023/08/28 12:12:40;;;;;;;2.75;1.17;;;;;;;17.42;58.60;95019.53;4957246;28;20252;-85
2023/08/28 12:15:08;;;;;;;2.72;1.20;;;;;;;18.15;58.75;95024.69;4956734;29;20204;-84
2023/08/28 12:17:33;;;;;;;1.45;1.13;;;;;;;18.36;55.52;95024.41;4955854;28;20196;-84
2023/08/28 12:19:59;;;;;;;2.35;1.30;;;;;;;18.19;57.46;95023.25;4954440;29;20559;-84
2023/08/28 12:22:25;;;;;;;1.40;1.27;;;;;;;18.26;56.88;95031.94;4957435;29;20189;-84
2023/08/28 12:24:51;;;;;;;1.77;1.08;;;;;;;17.48;57.92;95031.84;4940887;29;20185;-83
2023/08/28 12:27:24;;;;;;;1.83;1.50;;;;;;;17.38;58.91;95033.25;4957276;28;20189;-83